Flight Track Log - Related Links

Times and Time Zones

All times are in EDT time to prevent confusion due to time zone crossing. See the SWA407 flight status page for this flight to view local times or setup timezone preferences in your user account.

Time Position Orientation Groundspeed Altitude Reporting Facility
EDT Latitude Longitude Course Direction KTS MPH feet Rate Location/Type
Sun 09:52:09 PM 33.6500 -84.3667 64° Northeast 167 192 3,000  Level Atlanta TRACON
Sun 09:53:15 PM 33.6833 -84.2833 64° Northeast 250 288 4,800 2,033 Climbing Atlanta TRACON
Sun 09:54:10 PM 33.7500 -84.2833 360° North 287 330 7,100 2,548 Climbing Atlanta TRACON
Sun 09:55:41 PM 33.8125 -84.3739 310° West 253 291 11,000 2,623 Climbing Atlanta Center
Sun 09:56:41 PM 33.8122 -84.4914 270° West 317 365 13,700 2,550 Climbing Atlanta Center
Sun 09:57:41 PM 33.8139 -84.6114 271° West 342 394 16,100 2,550 Climbing Atlanta Center
Sun 09:58:41 PM 33.8172 -84.7364 272° West 362 417 18,800 2,550 Climbing Atlanta Center
Sun 09:59:41 PM 33.8206 -84.8764 272° West 380 437 21,200 2,250 Climbing Atlanta Center
Sun 10:00:41 PM 33.8239 -85.0114 272° West 401 461 23,300 2,050 Climbing Atlanta Center
Sun 10:01:41 PM 33.8269 -85.1492 272° West 406 467 25,300 1,850 Climbing Atlanta Center
Sun 10:02:41 PM 33.8317 -85.2867 272° West 406 467 27,000 1,700 Climbing Atlanta Center
Sun 10:03:41 PM 33.8347 -85.4117 272° West 415 478 28,700 2,100 Climbing Atlanta Center
Sun 10:04:41 PM 33.8350 -85.5494 270° West 415 478 31,200 2,200 Climbing Atlanta Center
Sun 10:05:41 PM 33.8481 -85.6747 277° West 403 464 33,100 1,350 Climbing Atlanta Center
Sun 10:06:41 PM 33.8861 -85.7956 291° West 387 445 33,900 800 Climbing Atlanta Center
Sun 10:07:41 PM 33.9239 -85.9164 291° West 387 445 34,700 900 Climbing Atlanta Center
Sun 10:08:41 PM 33.9658 -86.0450 291° West 400 460 35,700 650 Climbing Atlanta Center
Sun 10:09:41 PM 34.0033 -86.1736 289° West 406 467 36,000 150 Climbing Atlanta Center
Sun 10:10:41 PM 34.0386 -86.3000 289° West 406 467 36,000  Level Atlanta Center
Sun 10:11:41 PM 34.0739 -86.4264 289° West 406 467 36,000  Level Atlanta Center
Sun 10:12:41 PM 34.1089 -86.5528 289° West 406 467 36,000  Level Atlanta Center
Sun 10:13:41 PM 34.1439 -86.6767 289° West 406 467 36,000  Level Atlanta Center
Sun 10:15:10 PM 34.1989 -86.8767 288° West 399 459 36,000  Level Memphis Center
Sun 10:16:10 PM 34.2339 -87.0033 289° West 399 459 36,000  Level Memphis Center
Sun 10:17:10 PM 34.2664 -87.1278 288° West 394 453 36,000  Level Memphis Center
Sun 10:18:10 PM 34.2961 -87.2347 289° West 394 453 36,000  Level Memphis Center
Sun 10:19:10 PM 34.3325 -87.3592 290° West 389 448 36,000  Level Memphis Center
Sun 10:20:10 PM 34.3689 -87.4861 289° West 394 453 36,000  Level Memphis Center
Sun 10:21:10 PM 34.4053 -87.6133 289° West 394 453 36,000  Level Memphis Center
Sun 10:22:10 PM 34.4417 -87.7506 288° West 399 459 36,000  Level Memphis Center
Sun 10:23:10 PM 34.4733 -87.8806 286° West 399 459 36,000  Level Memphis Center
Sun 10:24:10 PM 34.5072 -88.0056 288° West 394 453 36,000  Level Memphis Center
Sun 10:25:10 PM 34.5408 -88.1333 288° West 394 453 36,000  Level Memphis Center
Sun 10:26:10 PM 34.5722 -88.2511 288° West 400 460 36,000  Level Memphis Center
Sun 10:27:10 PM 34.6056 -88.3764 288° West 400 460 36,000  Level Memphis Center
Sun 10:28:10 PM 34.6389 -88.5094 287° West 394 453 36,000  Level Memphis Center
Sun 10:29:10 PM 34.6719 -88.6297 289° West 383 441 36,000 250 Level Memphis Center
Sun 10:30:10 PM 34.7028 -88.7556 287° West 377 434 36,500 500 Climbing Memphis Center
Sun 10:31:10 PM 34.7356 -88.8761 288° West 377 434 37,000 250 Climbing Memphis Center
Sun 10:32:10 PM 34.7639 -88.9844 288° West 377 434 37,000  Level Memphis Center
Sun 10:33:10 PM 34.7925 -89.1103 286° West 377 434 37,000  Level Memphis Center
Sun 10:34:10 PM 34.8228 -89.2339 287° West 382 440 37,000  Level Memphis Center
Sun 10:35:10 PM 34.8531 -89.3600 286° West 377 434 37,000  Level Memphis Center
Sun 10:36:10 PM 34.8833 -89.4811 287° West 377 434 37,000  Level Memphis Center
Sun 10:37:10 PM 34.9153 -89.6050 287° West 377 434 37,000  Level Memphis Center
Sun 10:38:10 PM 34.9411 -89.7339 284° West 382 440 37,000  Level Memphis Center
Sun 10:39:10 PM 34.9792 -89.8678 289° West 400 460 37,000  Level Memphis Center
Sun 10:40:10 PM 35.0047 -89.9919 284° West 400 460 37,000  Level Memphis Center
Sun 10:41:10 PM 35.0342 -90.1161 286° West 384 442 37,000  Level Memphis Center
Sun 10:42:10 PM 35.0617 -90.2403 285° West 384 442 37,000  Level Memphis Center
Sun 10:43:10 PM 35.0908 -90.3622 286° West 377 434 37,000  Level Memphis Center
Sun 10:44:10 PM 35.1178 -90.4867 285° West 382 440 37,000  Level Memphis Center
Sun 10:45:10 PM 35.1469 -90.6111 286° West 377 434 37,000  Level Memphis Center
Sun 10:46:10 PM 35.1778 -90.7458 286° West 377 434 37,000  Level Memphis Center
Sun 10:47:10 PM 35.2025 -90.8703 284° West 377 434 37,000  Level Memphis Center
Sun 10:48:10 PM 35.2331 -90.9950 287° West 376 433 37,000  Level Memphis Center
Sun 10:49:10 PM 35.2597 -91.1147 285° West 376 433 37,000  Level Memphis Center
Sun 10:50:10 PM 35.2858 -91.2422 284° West 376 433 37,000  Level Memphis Center
Sun 10:51:10 PM 35.3161 -91.3672 287° West 376 433 37,000  Level Memphis Center
Sun 10:52:10 PM 35.3444 -91.4950 285° West 376 433 37,000  Level Memphis Center
Sun 10:53:10 PM 35.3703 -91.6200 284° West 376 433 37,000  Level Memphis Center
Sun 10:54:10 PM 35.3981 -91.7478 285° West 381 438 37,000  Level Memphis Center
Sun 10:55:10 PM 35.4258 -91.8756 285° West 381 438 37,000  Level Memphis Center
Sun 10:56:10 PM 35.4514 -92.0011 284° West 381 438 37,000  Level Memphis Center
Sun 10:57:10 PM 35.4808 -92.1264 286° West 381 438 37,000  Level Memphis Center
Sun 10:58:10 PM 35.5042 -92.2519 283° West 381 438 37,000  Level Memphis Center
Sun 10:59:10 PM 35.5314 -92.3750 285° West 375 432 37,000  Level Memphis Center
Sun 11:00:10 PM 35.5564 -92.4981 284° West 375 432 37,000  Level Memphis Center
Sun 11:01:10 PM 35.5814 -92.6214 284° West 375 432 37,000  Level Memphis Center
Sun 11:02:10 PM 35.6083 -92.7472 285° West 375 432 37,000  Level Memphis Center
Sun 11:03:10 PM 35.6328 -92.8706 284° West 387 445 37,000  Level Memphis Center
Sun 11:04:10 PM 35.6594 -92.9939 285° West 376 433 37,000  Level Memphis Center
Sun 11:05:10 PM 35.6822 -93.1044 284° West 362 417 37,000  Level Memphis Center
Sun 11:06:10 PM 35.7067 -93.2281 284° West 362 417 37,000 400 Level Memphis Center
Sun 11:07:10 PM 35.7308 -93.3467 284° West 362 417 37,800 500 Climbing Memphis Center
Sun 11:08:10 PM 35.7550 -93.4678 284° West 362 417 38,000 100 Climbing Memphis Center
Sun 11:09:10 PM 35.7769 -93.5836 283° West 362 417 38,000  Level Memphis Center
Sun 11:10:10 PM 35.8031 -93.7050 285° West 367 422 38,000  Level Memphis Center
Sun 11:11:10 PM 35.8247 -93.8261 282° West 367 422 38,000  Level Memphis Center
Sun 11:12:10 PM 35.8483 -93.9475 284° West 367 422 38,000  Level Memphis Center
Sun 11:13:10 PM 35.8761 -94.0717 285° West 367 422 38,000  Level Memphis Center
Sun 11:14:10 PM 35.8975 -94.1931 282° West 367 422 38,000  Level Memphis Center
Sun 11:15:10 PM 35.9208 -94.3147 283° West 367 422 38,000  Level Memphis Center
Sun 11:16:10 PM 35.9439 -94.4336 284° West 367 422 38,000  Level Memphis Center
Sun 11:18:39 PM 36.0003 -94.7317 283° West 365 420 38,000  Level Kansas City Center
Sun 11:19:37 PM 36.0233 -94.8539 283° West 365 420 38,000  Level Kansas City Center
Sun 11:20:38 PM 36.0472 -94.9778 283° West 367 422 38,000  Level Kansas City Center
Sun 11:21:39 PM 36.0703 -95.1022 283° West 369 425 38,000  Level Kansas City Center
Sun 11:22:40 PM 36.0933 -95.2286 283° West 369 425 38,000  Level Kansas City Center
Sun 11:23:44 PM 36.1172 -95.3522 283° West 371 427 38,000  Level Kansas City Center
Sun 11:24:45 PM 36.1381 -95.4753 282° West 369 425 38,000  Level Kansas City Center
Sun 11:25:46 PM 36.1614 -95.6003 283° West 371 427 38,000  Level Kansas City Center
Sun 11:26:46 PM 36.1881 -95.7475 283° West 367 422 38,000  Level Kansas City Center
Sun 11:27:46 PM 36.2064 -95.8517 282° West 365 420 38,000  Level Kansas City Center
Sun 11:28:46 PM 36.2286 -95.9750 283° West 365 420 38,000  Level Kansas City Center
Sun 11:29:49 PM 36.2500 -96.0975 282° West 363 418 38,000  Level Kansas City Center
Sun 11:30:50 PM 36.2719 -96.2203 283° West 363 418 38,000  Level Kansas City Center
Sun 11:31:51 PM 36.2975 -96.3658 282° West 361 415 38,000  Level Kansas City Center
Sun 11:32:52 PM 36.3189 -96.4850 283° West 356 410 38,000  Level Kansas City Center
Sun 11:33:53 PM 36.3383 -96.6042 281° West 353 406 38,000  Level Kansas City Center
Sun 11:34:54 PM 36.3589 -96.7231 282° West 352 405 38,000  Level Kansas City Center
Sun 11:35:54 PM 36.3778 -96.8306 282° West 356 410 38,000  Level Kansas City Center
Sun 11:36:55 PM 36.3967 -96.9467 281° West 350 403 38,000 -393 Level Kansas City Center
Sun 11:37:56 PM 36.4175 -97.0656 282° West 352 405 37,200 -934 Descending Kansas City Center
Sun 11:38:57 PM 36.4406 -97.2044 282° West 346 398 36,100 -590 Descending Kansas City Center
Sun 11:39:58 PM 36.4603 -97.3264 281° West 357 411 36,000 -50 Descending Kansas City Center
Sun 11:40:58 PM 36.4797 -97.4489 281° West 361 415 36,000  Level Kansas City Center
Sun 11:41:59 PM 36.5000 -97.5725 282° West 365 420 36,000  Level Kansas City Center
Sun 11:43:00 PM 36.5200 -97.6944 282° West 364 419 36,000  Level Kansas City Center
Sun 11:44:00 PM 36.5403 -97.8231 281° West 363 418 36,000  Level Kansas City Center
Sun 11:44:59 PM 36.5597 -97.9467 281° West 364 419 36,000  Level Kansas City Center
Sun 11:46:02 PM 36.5797 -98.0714 281° West 365 420 36,000  Level Kansas City Center
Sun 11:47:03 PM 36.5997 -98.1961 281° West 368 423 36,000  Level Kansas City Center
Sun 11:48:02 PM 36.6189 -98.3208 281° West 368 423 36,000  Level Kansas City Center
Sun 11:49:04 PM 36.6383 -98.4453 281° West 367 422 36,000  Level Kansas City Center
Sun 11:50:04 PM 36.6575 -98.5708 281° West 368 423 36,000  Level Kansas City Center
Sun 11:51:05 PM 36.6753 -98.6936 280° West 365 420 36,000  Level Kansas City Center
Sun 11:52:06 PM 36.6950 -98.8172 281° West 363 418 36,000  Level Kansas City Center
Sun 11:53:06 PM 36.7131 -98.9400 280° West 362 417 36,000  Level Kansas City Center
Sun 11:54:07 PM 36.7325 -99.0669 281° West 367 422 36,000  Level Kansas City Center
Sun 11:55:07 PM 36.7506 -99.1944 280° West 374 430 36,000  Level Kansas City Center
Sun 11:56:06 PM 36.7686 -99.3203 280° West 371 427 36,000  Level Kansas City Center
Sun 11:57:09 PM 36.7878 -99.4444 281° West 366 421 36,000  Level Kansas City Center
Sun 11:58:09 PM 36.8056 -99.5694 280° West 367 422 36,000  Level Kansas City Center
Sun 11:59:11 PM 36.8231 -99.6953 280° West 368 423 36,000  Level Kansas City Center
Mon 12:00:08 AM 36.8419 -99.8203 281° West 367 422 36,000  Level Kansas City Center
Mon 12:01:13 AM 36.8636 -99.9689 280° West 364 419 36,000  Level Kansas City Center
Mon 12:02:12 AM 36.8814 -100.0933 280° West 364 419 36,000  Level Kansas City Center
Mon 12:03:10 AM 36.8992 -100.2203 280° West 365 420 36,000  Level Kansas City Center
Mon 12:04:14 AM 36.9158 -100.3414 280° West 367 422 36,000  Level Kansas City Center
Mon 12:05:13 AM 36.9328 -100.4622 280° West 368 423 36,000  Level Kansas City Center
Mon 12:06:15 AM 36.9497 -100.5842 280° West 370 426 36,000  Level Kansas City Center
Mon 12:07:15 AM 36.9689 -100.7289 279° West 375 432 36,000  Level Kansas City Center
Mon 12:08:13 AM 36.9853 -100.8531 279° West 375 432 36,000  Level Kansas City Center
Mon 12:09:14 AM 37.0019 -100.9750 280° West 374 430 36,000  Level Kansas City Center
Mon 12:10:17 AM 37.0200 -101.1192 279° West 374 430 36,000  Level Kansas City Center
Mon 12:11:17 AM 37.0361 -101.2397 280° West 370 426 36,000  Level Kansas City Center
Mon 12:12:18 AM 37.0511 -101.3594 279° West 365 420 36,000  Level Kansas City Center
Mon 12:13:06 AM 37.0642 -101.4594 279° West 363 418 36,000  Level Albuquerque Center
Mon 12:14:06 AM 37.0831 -101.6000 280° West 366 421 36,000  Level Albuquerque Center
Mon 12:15:53 AM 37.1100 -101.8222 279° West 368 423 36,000  Level Kansas City Center
Mon 12:16:56 AM 37.1250 -101.9417 279° West 365 420 36,000  Level Kansas City Center
Mon 12:17:56 AM 37.1394 -102.0611 279° West 363 418 36,000  Level Kansas City Center
Mon 12:18:55 AM 37.1558 -102.2014 278° West 365 420 36,000  Level Kansas City Center
Mon 12:19:47 AM 37.1719 -102.3128 280° West 362 417 36,000  Level Albuquerque Center
Mon 12:20:48 AM 37.1858 -102.4328 278° West 362 417 36,000  Level Albuquerque Center
Mon 12:21:49 AM 37.2000 -102.5508 279° West 359 413 36,000  Level Albuquerque Center
Mon 12:22:50 AM 37.2161 -102.6900 278° West 360 414 36,000  Level Albuquerque Center
Mon 12:23:51 AM 37.2303 -102.8106 278° West 365 420 36,000  Level Albuquerque Center
Mon 12:24:52 AM 37.2461 -102.9306 279° West 365 420 36,000  Level Albuquerque Center
Mon 12:25:52 AM 37.2608 -103.0722 277° West 366 421 36,000  Level Albuquerque Center
Mon 12:26:53 AM 37.2750 -103.1942 278° West 367 422 36,000  Level Albuquerque Center
Mon 12:27:54 AM 37.2903 -103.3353 278° West 366 421 36,000  Level Albuquerque Center
Mon 12:28:55 AM 37.3039 -103.4550 278° West 363 418 36,000  Level Albuquerque Center
Mon 12:29:56 AM 37.3153 -103.5756 277° West 363 418 36,000  Level Albuquerque Center
Mon 12:30:27 AM 37.3228 -103.6328 279° West 358 412 36,000 261 Level Denver Center
Mon 12:31:28 AM 37.3381 -103.7753 278° West 366 421 36,400 639 Climbing Denver Center
Mon 12:32:29 AM 37.3511 -103.9022 277° West 379 436 37,300 787 Climbing Denver Center
Mon 12:33:30 AM 37.3650 -104.0286 278° West 377 434 38,000 347 Climbing Denver Center
Mon 12:34:30 AM 37.3792 -104.1711 277° West 363 418 38,000  Level Denver Center
Mon 12:35:31 AM 37.3919 -104.2917 278° West 360 414 38,000  Level Denver Center
Mon 12:36:32 AM 37.4039 -104.4111 277° West 358 412 38,000  Level Denver Center
Mon 12:37:33 AM 37.4161 -104.5294 277° West 355 409 38,000  Level Denver Center
Mon 12:38:34 AM 37.4283 -104.6667 276° West 354 407 38,000  Level Denver Center
Mon 12:39:34 AM 37.4411 -104.7833 278° West 352 405 38,000  Level Denver Center
Mon 12:40:35 AM 37.4533 -104.9019 277° West 354 407 38,000  Level Denver Center
Mon 12:41:36 AM 37.4658 -105.0381 277° West 352 405 38,000  Level Denver Center
Mon 12:42:37 AM 37.4772 -105.1547 277° West 351 404 38,000  Level Denver Center
Mon 12:43:38 AM 37.4894 -105.2747 277° West 355 409 38,000  Level Denver Center
Mon 12:44:38 AM 37.5028 -105.4106 277° West 349 402 38,000  Level Denver Center
Mon 12:45:39 AM 37.5125 -105.5281 276° West 353 406 38,000  Level Denver Center
Mon 12:46:40 AM 37.5233 -105.6464 277° West 355 409 38,000  Level Denver Center
Mon 12:47:41 AM 37.5353 -105.7822 276° West 350 403 38,000  Level Denver Center
Mon 12:48:42 AM 37.5467 -105.9008 277° West 354 407 38,000  Level Denver Center
Mon 12:49:42 AM 37.5575 -106.0189 277° West 356 410 38,000  Level Denver Center
Mon 12:50:43 AM 37.5683 -106.1578 276° West 356 410 38,000  Level Denver Center
Mon 12:51:44 AM 37.5789 -106.2811 276° West 363 418 38,000  Level Denver Center
Mon 12:52:45 AM 37.5903 -106.4081 276° West 374 430 38,000  Level Denver Center
Mon 12:53:45 AM 37.6025 -106.5531 276° West 374 430 38,000  Level Denver Center
Mon 12:54:46 AM 37.6122 -106.6750 276° West 368 423 38,000  Level Denver Center
Mon 12:55:47 AM 37.6231 -106.7981 276° West 368 423 38,000  Level Denver Center
Mon 12:56:48 AM 37.6344 -106.9394 276° West 365 420 38,000  Level Denver Center
Mon 12:57:48 AM 37.6436 -107.0606 275° West 364 419 38,000  Level Denver Center
Mon 12:58:49 AM 37.6553 -107.2028 276° West 365 420 38,000  Level Denver Center
Mon 12:59:51 AM 37.6650 -107.3236 276° West 363 418 38,000  Level Denver Center
Mon 01:00:52 AM 37.6742 -107.4444 276° West 363 418 38,000  Level Denver Center
Mon 01:01:53 AM 37.6844 -107.5875 275° West 365 420 38,000  Level Denver Center
Mon 01:02:53 AM 37.6925 -107.7058 275° West 358 412 38,000  Level Denver Center
Mon 01:03:54 AM 37.7022 -107.8250 276° West 356 410 38,000  Level Denver Center
Mon 01:04:54 AM 37.7114 -107.9639 275° West 356 410 38,000  Level Denver Center
Mon 01:05:55 AM 37.7206 -108.0833 276° West 358 412 38,000  Level Denver Center
Mon 01:06:56 AM 37.7311 -108.2025 276° West 359 413 38,000  Level Denver Center
Mon 01:07:56 AM 37.7464 -108.3411 278° West 357 411 38,000  Level Denver Center
Mon 01:08:57 AM 37.7594 -108.4581 278° West 355 409 38,000  Level Denver Center
Mon 01:09:57 AM 37.7722 -108.5781 278° West 358 412 38,000  Level Denver Center
Mon 01:10:58 AM 37.7878 -108.7203 278° West 364 419 38,000  Level Denver Center
Mon 01:11:59 AM 37.8000 -108.8394 277° West 361 415 38,000  Level Denver Center
Mon 01:12:59 AM 37.8131 -108.9586 278° West 360 414 38,000  Level Denver Center
Mon 01:14:00 AM 37.8275 -109.0986 277° West 359 413 38,000  Level Denver Center
Mon 01:15:00 AM 37.8397 -109.2183 277° West 359 413 38,000  Level Denver Center
Mon 01:16:01 AM 37.8514 -109.3372 277° West 357 411 38,000  Level Denver Center
Mon 01:17:01 AM 37.8661 -109.4772 278° West 359 413 38,000  Level Denver Center
Mon 01:18:02 AM 37.8769 -109.5972 277° West 360 414 38,000  Level Denver Center
Mon 01:19:02 AM 37.8894 -109.7175 278° West 362 417 38,000  Level Denver Center
Mon 01:20:03 AM 37.9036 -109.8586 277° West 362 417 38,000  Level Denver Center
Mon 01:21:03 AM 37.9142 -109.9794 276° West 361 415 38,000  Level Denver Center
Mon 01:22:04 AM 37.9261 -110.0994 277° West 359 413 38,000  Level Denver Center
Mon 01:23:04 AM 37.9375 -110.2203 277° West 362 417 38,000  Level Denver Center
Mon 01:24:05 AM 37.9500 -110.3597 277° West 358 412 38,000  Level Denver Center
Mon 01:25:05 AM 37.9606 -110.4819 276° West 364 419 38,000  Level Denver Center
Mon 01:26:06 AM 37.9722 -110.5981 277° West 366 421 38,000  Level Denver Center
Mon 01:27:06 AM 37.9856 -110.7514 276° West 365 420 38,000  Level Denver Center
Mon 01:28:07 AM 37.9964 -110.8797 276° West 368 423 38,000  Level Denver Center
Mon 01:29:07 AM 38.0078 -111.0078 276° West 368 423 38,000  Level Denver Center
Mon 01:30:08 AM 38.0192 -111.1358 276° West 368 423 38,000  Level Denver Center
Mon 01:30:24 AM 38.0225 -111.1622 279° West 366 421 38,000  Level Salt Lake Center
Mon 01:31:24 AM 38.0336 -111.2894 276° West 365 420 38,000  Level Salt Lake Center
Mon 01:32:08 AM 38.0411 -111.3894 275° West 362 417 38,000  Level Denver Center
Mon 01:32:25 AM 38.0439 -111.4167 277° West 363 418 38,000  Level Salt Lake Center
Mon 01:33:26 AM 38.0547 -111.5478 276° West 372 428 38,000  Level Salt Lake Center
Mon 01:34:26 AM 38.0656 -111.6800 276° West 377 434 38,000  Level Salt Lake Center
Mon 01:35:27 AM 38.0764 -111.8117 276° West 376 433 38,000  Level Salt Lake Center
Mon 01:36:28 AM 38.0861 -111.9444 275° West 379 436 38,000  Level Salt Lake Center
Mon 01:37:28 AM 38.0967 -112.0778 276° West 381 438 38,000  Level Salt Lake Center
Mon 01:38:29 AM 38.1067 -112.2094 276° West 378 435 38,000  Level Salt Lake Center
Mon 01:39:29 AM 38.1189 -112.3669 276° West 376 433 38,000  Level Salt Lake Center
Mon 01:40:30 AM 38.1281 -112.5011 275° West 383 441 38,000  Level Salt Lake Center
Mon 01:41:31 AM 38.1381 -112.6325 276° West 379 436 38,000  Level Salt Lake Center
Mon 01:42:31 AM 38.1467 -112.7619 275° West 372 428 38,000  Level Salt Lake Center
Mon 01:43:32 AM 38.1553 -112.8914 275° West 372 428 38,000  Level Salt Lake Center
Mon 01:44:32 AM 38.1647 -113.0219 275° West 374 430 38,000  Level Salt Lake Center
Mon 01:45:33 AM 38.1733 -113.1519 275° West 373 429 38,000  Level Salt Lake Center
Mon 01:46:34 AM 38.1819 -113.2822 275° West 374 430 38,000  Level Salt Lake Center
Mon 01:47:34 AM 38.1906 -113.4150 275° West 378 435 38,000 -198 Level Salt Lake Center
Mon 01:48:35 AM 38.1997 -113.5483 275° West 380 437 37,600 -893 Descending Salt Lake Center
Mon 01:49:35 AM 38.2075 -113.6800 274° West 379 436 36,200 -1,587 Descending Salt Lake Center
Mon 01:50:36 AM 38.2161 -113.8072 275° West 366 421 34,400 -1,082 Descending Salt Lake Center
Mon 01:51:37 AM 38.2244 -113.9392 275° West 373 429 34,000 -198 Descending Salt Lake Center
Mon 01:52:37 AM 38.2322 -114.0706 274° West 374 430 34,000  Level Salt Lake Center
Mon 01:53:38 AM 38.2408 -114.2294 274° West 377 434 34,000  Level Salt Lake Center
Mon 01:54:38 AM 38.2478 -114.3625 274° West 378 435 34,000  Level Salt Lake Center
Mon 01:55:39 AM 38.2439 -114.5014 268° West 393 452 34,000  Level Salt Lake Center
Mon 01:56:39 AM 38.2344 -114.6408 265° West 396 456 34,000 -496 Level Salt Lake Center
Mon 01:57:40 AM 38.2264 -114.7803 266° West 395 455 33,000 -934 Descending Salt Lake Center
Mon 01:58:41 AM 38.2183 -114.9228 266° West 403 464 32,100 -496 Descending Salt Lake Center
Mon 01:59:41 AM 38.2075 -115.0675 265° West 411 473 32,000 -50 Descending Salt Lake Center
Mon 02:00:42 AM 38.1989 -115.2089 266° West 405 466 32,000  Level Salt Lake Center
Mon 02:01:42 AM 38.1897 -115.3389 265° West 411 473 32,000  Level Salt Lake Center
Mon 02:02:43 AM 38.1803 -115.4825 265° West 409 471 32,000  Level Salt Lake Center
Mon 02:03:43 AM 38.1692 -115.6303 265° West 419 482 32,000  Level Salt Lake Center
Mon 02:04:44 AM 38.1581 -115.8053 265° West 415 478 32,000  Level Salt Lake Center
Mon 02:05:44 AM 38.1472 -115.9531 265° West 420 483 32,000  Level Salt Lake Center
Mon 02:06:45 AM 38.1369 -116.0989 265° West 417 480 32,000  Level Salt Lake Center
Mon 02:07:45 AM 38.1264 -116.2478 265° West 421 484 32,000  Level Salt Lake Center
Mon 02:08:46 AM 38.1147 -116.3961 264° West 422 486 32,000  Level Salt Lake Center
Mon 02:09:46 AM 38.1033 -116.5436 264° West 421 484 32,000  Level Salt Lake Center
Mon 02:10:47 AM 38.0919 -116.6919 264° West 421 484 32,000  Level Salt Lake Center
Mon 02:11:48 AM 38.0806 -116.8394 264° West 421 484 32,000  Level Salt Lake Center
Mon 02:12:40 AM 38.0717 -116.9583 265° West 421 484 32,000  Level Oakland Center
Mon 02:13:49 AM 38.0564 -117.1392 264° West 421 484 32,000  Level Salt Lake Center
Mon 02:14:41 AM 38.0464 -117.2636 264° West 427 491 32,000  Level Oakland Center
Mon 02:15:42 AM 38.0333 -117.4167 264° West 429 494 32,000  Level Oakland Center
Mon 02:16:42 AM 38.0208 -117.5678 264° West 429 494 32,000  Level Oakland Center
Mon 02:17:43 AM 38.0075 -117.7189 264° West 430 495 32,000  Level Oakland Center
Mon 02:18:43 AM 37.9928 -117.8711 263° West 433 498 32,000  Level Oakland Center
Mon 02:19:44 AM 37.9772 -118.0208 263° West 430 495 32,000  Level Oakland Center
Mon 02:20:44 AM 37.9614 -118.1694 262° West 426 490 32,000  Level Oakland Center
Mon 02:21:45 AM 37.9447 -118.3197 262° West 429 494 32,000  Level Oakland Center
Mon 02:22:45 AM 37.9281 -118.4697 262° West 431 496 32,000  Level Oakland Center
Mon 02:23:46 AM 37.9114 -118.6208 262° West 433 498 32,000  Level Oakland Center
Mon 02:24:46 AM 37.8944 -118.7719 262° West 434 499 32,000  Level Oakland Center
Mon 02:25:47 AM 37.8783 -118.9244 262° West 437 503 32,000  Level Oakland Center
Mon 02:26:47 AM 37.8578 -119.0939 261° West 438 504 32,000  Level Oakland Center
Mon 02:27:48 AM 37.8389 -119.2483 261° West 443 510 32,000 -843 Level Oakland Center
Mon 02:28:48 AM 37.8211 -119.3958 261° West 430 495 30,300 -1,140 Descending Oakland Center
Mon 02:29:49 AM 37.8058 -119.5347 262° West 403 464 29,700 -843 Descending Oakland Center
Mon 02:30:49 AM 37.7883 -119.6736 261° West 403 464 28,600 -893 Descending Oakland Center
Mon 02:31:50 AM 37.7731 -119.8108 262° West 397 457 27,900 -893 Descending Oakland Center
Mon 02:32:50 AM 37.7564 -119.9450 261° West 389 448 26,800 -942 Descending Oakland Center
Mon 02:33:51 AM 37.7397 -120.0769 261° West 382 440 26,000 -397 Descending Oakland Center
Mon 02:34:51 AM 37.7231 -120.2069 261° West 376 433 26,000  Level Oakland Center
Mon 02:35:52 AM 37.7072 -120.3386 261° West 378 435 26,000  Level Oakland Center
Mon 02:36:52 AM 37.6911 -120.4683 261° West 377 434 26,000 -397 Level Oakland Center
Mon 02:37:53 AM 37.6744 -120.6003 261° West 379 436 25,200 -893 Descending Oakland Center
Mon 02:38:53 AM 37.6561 -120.7328 260° West 383 441 24,200 -1,059 Descending Oakland Center
Mon 02:39:18 AM 37.6500 -120.8000 263° West 374 430 23,700 -1,385 Descending Northern Cal TRACON
Mon 02:40:24 AM 37.6333 -120.9167 260° West 368 423 22,100 -1,650 Descending Northern Cal TRACON
Mon 02:41:18 AM 37.6167 -121.0333 260° West 357 411 20,400 -1,882 Descending Northern Cal TRACON
Mon 02:42:06 AM 37.6000 -121.1333 258° West 351 404 18,900 -1,833 Descending Northern Cal TRACON
Mon 02:43:06 AM 37.6000 -121.2500 270° West 335 386 17,100 -1,800 Descending Northern Cal TRACON
Mon 02:44:06 AM 37.5833 -121.3667 260° West 325 374 15,300 -1,800 Descending Northern Cal TRACON
Mon 02:45:06 AM 37.5667 -121.4667 258° West 318 366 13,500 -1,762 Descending Northern Cal TRACON
Mon 02:46:12 AM 37.5500 -121.6000 261° West 308 354 11,600 -1,250 Descending Northern Cal TRACON
Mon 02:47:06 AM 37.5333 -121.6833 256° West 304 350 11,000 -1,158 Descending Northern Cal TRACON
Mon 02:48:06 AM 37.5167 -121.7833 258° West 304 350 9,400 -1,381 Descending Northern Cal TRACON
Mon 02:49:12 AM 37.5000 -121.8833 258° West 286 329 8,100 -1,381 Descending Northern Cal TRACON
Mon 02:50:12 AM 37.4833 -121.9667 256° West 243 280 6,500 -1,050 Descending Northern Cal TRACON
Mon 02:51:12 AM 37.5000 -122.0500 284° West 238 274 6,000 -1,200 Descending Northern Cal TRACON
Mon 02:52:12 AM 37.5333 -122.1167 302° West 224 258 4,100 -1,389 Descending Northern Cal TRACON
Mon 02:53:00 AM 37.5567 -122.1603 304° West 226 260 3,500 -1,222 Descending Oakland Center
Mon 02:54:00 AM 37.5700 -122.2250 285° West 203 234 1,900 -1,140 Descending Oakland Center
Mon 02:55:01 AM 37.5831 -122.2808 286° West 186 214 1,200 -645 Descending Oakland Center
Mon 02:56:01 AM 37.5956 -122.3239 290° West 153 176 600 -545 Descending Oakland Center
Mon 02:57:02 AM 37.6156 -122.3742 297° West 148 170 100 -492 Descending Oakland Center

Login

Don't have an account? Register now (free) for customized features, flight alerts, and more!